Time;durP1;ratioP1;P1;durP2;ratioP2;P2;SDS_P1;SDS_P2;PMS_P1;PMS_P2;Temp;Humidity;BMP_temperature;BMP_pressure;BME280_temperature;BME280_humidity;BME280_pressure;Samples;Min_cycle;Max_cycle;Signal;HPM_P1;HPM_P2
2022/01/03 00:01:20;;;;;;;11.95;3.90;;;8.60;99.90;;;;;;5027627;28;20049;-82
2022/01/03 00:03:47;;;;;;;11.10;2.72;;;8.70;99.90;;;;;;4992643;28;20107;-82
2022/01/03 00:06:14;;;;;;;12.25;2.45;;;8.60;99.90;;;;;;4995170;28;20048;-81
2022/01/03 00:08:44;;;;;;;11.13;2.30;;;8.70;99.90;;;;;;5008746;28;20460;-82
2022/01/03 00:11:12;;;;;;;9.63;2.13;;;8.70;99.90;;;;;;5027393;28;20056;-82
2022/01/03 00:13:43;;;;;;;10.40;1.95;;;8.70;99.90;;;;;;4994612;28;20120;-82
2022/01/03 00:16:10;;;;;;;11.48;3.20;;;8.70;99.90;;;;;;4994252;28;20041;-83
2022/01/03 00:18:37;;;;;;;9.50;2.58;;;8.80;99.90;;;;;;4977317;28;20049;-82
2022/01/03 00:21:10;;;;;;;15.02;3.67;;;8.80;99.90;;;;;;4989777;28;20493;-81
2022/01/03 00:23:38;;;;;;;19.98;3.88;;;8.80;99.90;;;;;;5025165;28;20523;-82
2022/01/03 00:26:07;;;;;;;18.15;3.40;;;8.90;99.90;;;;;;5011388;28;20053;-82
2022/01/03 00:28:39;;;;;;;19.67;3.30;;;8.90;99.90;;;;;;4993959;28;20053;-81
2022/01/03 00:31:05;;;;;;;22.55;4.38;;;8.90;99.90;;;;;;5027323;28;20041;-82
2022/01/03 00:33:32;;;;;;;19.88;3.97;;;9.00;99.90;;;;;;4991415;28;20045;-82
2022/01/03 00:36:03;;;;;;;23.35;4.35;;;9.00;99.90;;;;;;4995662;28;20158;-82
2022/01/03 00:38:33;;;;;;;24.48;4.38;;;9.00;99.90;;;;;;4991317;28;20055;-83
2022/01/03 00:41:01;;;;;;;20.35;4.47;;;9.00;99.90;;;;;;5011697;28;20084;-82
2022/01/03 00:43:31;;;;;;;16.85;3.92;;;9.00;99.90;;;;;;4993103;28;20045;-82
2022/01/03 00:45:58;;;;;;;28.15;5.05;;;9.00;99.90;;;;;;5004758;28;20536;-83
2022/01/03 00:48:25;;;;;;;24.50;5.00;;;9.00;99.90;;;;;;4996733;28;20050;-82
2022/01/03 00:50:51;;;;;;;18.17;3.90;;;9.00;99.90;;;;;;5003480;28;20100;-82
2022/01/03 00:53:19;;;;;;;21.17;3.80;;;9.00;99.90;;;;;;4989334;28;20033;-82
2022/01/03 00:56:09;;;;;;;22.67;4.25;;;9.00;99.90;;;;;;5004461;28;20041;-83
2022/01/03 00:58:43;;;;;;;25.02;4.50;;;9.00;99.90;;;;;;4995053;28;20085;-82
2022/01/03 01:01:11;;;;;;;24.58;4.47;;;9.00;99.90;;;;;;5008970;28;20053;-82
2022/01/03 01:03:40;;;;;;;24.13;3.90;;;9.00;99.90;;;;;;4991317;28;20128;-82
2022/01/03 01:06:07;;;;;;;19.92;4.50;;;9.00;99.90;;;;;;4991353;28;20132;-82
2022/01/03 01:08:37;;;;;;;19.88;3.90;;;9.00;99.90;;;;;;4986723;28;20067;-82
2022/01/03 01:11:08;;;;;;;23.52;4.75;;;9.10;99.90;;;;;;4994595;28;20037;-81
2022/01/03 01:13:39;;;;;;;20.60;4.50;;;9.10;99.90;;;;;;4977378;28;20073;-82
2022/01/03 01:16:07;;;;;;;24.13;4.10;;;9.10;99.90;;;;;;5008918;28;20425;-83
2022/01/03 01:18:39;;;;;;;22.13;3.78;;;9.10;99.90;;;;;;4995663;28;20041;-82
2022/01/03 01:21:06;;;;;;;25.60;3.95;;;9.10;99.90;;;;;;4986962;28;20053;-82
2022/01/03 01:23:34;;;;;;;23.67;4.38;;;9.10;99.90;;;;;;4992226;28;20049;-82
2022/01/03 01:28:46;;;;;;;24.55;4.70;;;9.10;99.90;;;;;;4976008;28;20050;-82
2022/01/03 01:31:19;;;;;;;26.88;3.88;;;9.10;99.90;;;;;;4976384;28;20046;-82
2022/01/03 01:33:52;;;;;;;19.02;4.10;;;9.10;99.90;;;;;;4978261;28;20056;-82
2022/01/03 01:36:27;;;;;;;21.85;4.53;;;9.10;99.90;;;;;;5025448;28;20049;-82
2022/01/03 01:38:59;;;;;;;19.00;4.72;;;9.10;99.90;;;;;;4993983;28;20050;-82
2022/01/03 01:41:28;;;;;;;20.35;3.97;;;9.20;99.90;;;;;;5007597;28;20045;-82
2022/01/03 01:43:58;;;;;;;28.58;5.00;;;9.20;99.90;;;;;;5020810;28;20057;-82
2022/01/03 01:46:26;;;;;;;17.65;4.22;;;9.20;99.90;;;;;;5000770;28;20045;-83
2022/01/03 01:49:05;;;;;;;23.38;4.30;;;9.20;99.90;;;;;;4991898;28;20049;-82
2022/01/03 01:51:36;;;;;;;23.50;4.53;;;9.20;99.90;;;;;;5026325;28;20461;-82
2022/01/03 01:54:05;;;;;;;24.80;4.80;;;9.20;99.90;;;;;;4977933;28;20537;-82
2022/01/03 01:56:34;;;;;;;22.73;4.32;;;9.20;99.90;;;;;;4980154;28;20042;-82
2022/01/03 01:59:21;;;;;;;24.02;4.43;;;9.20;99.90;;;;;;4983128;28;20057;-82
2022/01/03 02:02:15;;;;;;;27.42;3.78;;;9.20;99.90;;;;;;5006999;28;20065;-82
2022/01/03 02:04:46;;;;;;;23.08;4.15;;;9.20;99.90;;;;;;5008414;28;20049;-83
2022/01/03 02:07:25;;;;;;;17.13;3.60;;;9.20;99.90;;;;;;4990425;28;20061;-83
2022/01/03 02:10:09;;;;;;;27.35;5.05;;;9.20;99.90;;;;;;5008810;28;20078;-82
2022/01/03 02:12:42;;;;;;;20.30;4.53;;;9.20;99.90;;;;;;5008177;28;20044;-82
2022/01/03 02:15:13;;;;;;;17.13;3.88;;;9.20;99.90;;;;;;4991793;28;20406;-82
2022/01/03 02:17:43;;;;;;;28.45;5.55;;;9.10;99.90;;;;;;4988198;28;20445;-83
2022/01/03 02:20:21;;;;;;;24.27;4.22;;;9.20;99.90;;;;;;4998576;28;20041;-82
2022/01/03 02:22:51;;;;;;;21.42;4.22;;;9.10;99.90;;;;;;4993374;28;20050;-82
2022/01/03 02:25:22;;;;;;;21.08;5.72;;;9.10;99.90;;;;;;4986496;28;20041;-82
2022/01/03 02:27:50;;;;;;;24.60;4.18;;;9.10;99.90;;;;;;4991511;28;20055;-82
2022/01/03 02:30:21;;;;;;;26.08;4.00;;;9.10;99.90;;;;;;4995924;28;20050;-83
2022/01/03 02:32:48;;;;;;;22.75;4.43;;;9.10;99.90;;;;;;4994909;28;20428;-82
2022/01/03 02:35:15;;;;;;;23.08;4.65;;;9.10;99.90;;;;;;4975819;28;20041;-82
2022/01/03 02:37:45;;;;;;;26.35;4.97;;;9.00;99.90;;;;;;4982692;28;20052;-82
2022/01/03 02:40:13;;;;;;;25.02;5.07;;;9.10;99.90;;;;;;4980188;28;20037;-82
2022/01/03 02:42:41;;;;;;;22.13;3.97;;;9.00;99.90;;;;;;4946734;28;20136;-82
2022/01/03 02:45:08;;;;;;;25.25;4.47;;;9.00;99.90;;;;;;4995215;28;20073;-83
2022/01/03 02:47:36;;;;;;;21.38;4.10;;;8.90;99.90;;;;;;4978954;28;20049;-82
2022/01/03 02:50:05;;;;;;;29.55;5.97;;;8.90;99.90;;;;;;4948243;28;20045;-82
2022/01/03 02:52:33;;;;;;;26.40;5.07;;;8.90;99.90;;;;;;5003687;28;20084;-82
2022/01/03 02:55:00;;;;;;;20.48;4.35;;;8.90;99.90;;;;;;5000307;28;20701;-82
2022/01/03 02:57:32;;;;;;;23.23;4.50;;;8.90;99.90;;;;;;4992990;28;20050;-83
2022/01/03 03:00:00;;;;;;;24.52;4.30;;;8.90;99.90;;;;;;4975006;28;20087;-82
2022/01/03 03:02:27;;;;;;;24.27;4.22;;;8.90;99.90;;;;;;4996077;28;20093;-82
2022/01/03 03:04:56;;;;;;;21.70;4.43;;;8.90;99.90;;;;;;5011465;28;20120;-82
2022/01/03 03:07:26;;;;;;;21.00;4.05;;;8.90;99.90;;;;;;5010009;28;20076;-82
2022/01/03 03:09:52;;;;;;;22.75;4.03;;;8.90;99.90;;;;;;5010999;28;20128;-82
2022/01/03 03:12:20;;;;;;;24.65;4.68;;;8.90;99.90;;;;;;4994386;28;20045;-82
2022/01/03 03:14:47;;;;;;;28.90;4.40;;;8.80;99.90;;;;;;4985878;28;20141;-82
2022/01/03 03:17:13;;;;;;;22.65;4.38;;;8.80;99.90;;;;;;4992824;28;20041;-83
2022/01/03 03:20:06;;;;;;;24.30;4.95;;;8.80;99.90;;;;;;4994032;28;20550;-82
2022/01/03 03:22:32;;;;;;;27.15;4.45;;;8.80;99.90;;;;;;4991443;28;20048;-82
2022/01/03 03:25:12;;;;;;;25.80;5.32;;;8.70;99.90;;;;;;4988515;28;20054;-82
2022/01/03 03:27:43;;;;;;;28.25;5.22;;;8.70;99.90;;;;;;4992754;28;20029;-83
2022/01/03 03:30:11;;;;;;;;;;;8.70;99.90;;;;;;4981260;28;20034;-83
2022/01/03 03:32:38;;;;;;;26.15;5.00;;;8.60;99.90;;;;;;4999255;28;19968;-83
2022/01/03 03:35:05;;;;;;;22.52;5.38;;;8.60;99.90;;;;;;4963775;28;20041;-83
2022/01/03 03:37:31;;;;;;;28.23;5.00;;;8.70;99.90;;;;;;4998394;28;20437;-83
2022/01/03 03:39:58;;;;;;;27.77;4.75;;;8.70;99.90;;;;;;5014343;28;20053;-83
2022/01/03 03:42:25;;;;;;;25.48;4.65;;;8.70;99.90;;;;;;5013997;28;20037;-83
2022/01/03 03:44:52;;;;;;;29.83;5.30;;;8.70;99.90;;;;;;4998986;28;20051;-83
2022/01/03 03:47:18;;;;;;;28.27;5.40;;;8.70;99.90;;;;;;4988928;28;20096;-83
2022/01/03 03:49:44;;;;;;;24.20;4.30;;;8.70;99.90;;;;;;4961502;28;20085;-84
2022/01/03 03:52:11;;;;;;;22.40;5.13;;;8.80;99.90;;;;;;4966579;28;20378;-83
2022/01/03 03:54:40;;;;;;;26.27;5.25;;;8.80;99.90;;;;;;4983788;28;20493;-83
2022/01/03 03:57:08;;;;;;;19.80;5.25;;;8.80;99.90;;;;;;4985837;28;20746;-83
2022/01/03 03:59:36;;;;;;;25.88;5.47;;;8.80;99.90;;;;;;4979809;28;20048;-83
2022/01/03 04:02:02;;;;;;;29.65;5.10;;;8.90;99.90;;;;;;4981164;28;20076;-83
2022/01/03 04:04:29;;;;;;;22.45;5.20;;;8.90;99.90;;;;;;4975239;28;20045;-83
2022/01/03 04:06:56;;;;;;;27.60;4.95;;;8.90;99.90;;;;;;4977844;28;20083;-83
2022/01/03 04:09:22;;;;;;;25.48;4.57;;;8.90;99.90;;;;;;5028533;28;20046;-83
2022/01/03 04:11:50;;;;;;;28.95;5.38;;;9.00;99.90;;;;;;5011854;28;20037;-83
2022/01/03 04:14:16;;;;;;;24.38;4.85;;;9.00;99.90;;;;;;4976948;28;20045;-83
2022/01/03 04:16:42;;;;;;;24.95;5.45;;;9.00;99.90;;;;;;5011643;28;20045;-83
2022/01/03 04:19:11;;;;;;;30.63;4.35;;;9.00;99.90;;;;;;5005179;28;20052;-83
2022/01/03 04:21:39;;;;;;;28.65;5.20;;;9.00;99.90;;;;;;4995757;28;20057;-83
2022/01/03 04:24:07;;;;;;;27.75;4.85;;;9.10;99.90;;;;;;4980064;28;20050;-83
2022/01/03 04:26:34;;;;;;;25.48;5.05;;;9.00;99.90;;;;;;4993986;28;20041;-83
2022/01/03 04:29:02;;;;;;;23.77;5.32;;;9.10;99.90;;;;;;4995268;28;20123;-82
2022/01/03 04:31:29;;;;;;;26.80;5.45;;;9.10;99.90;;;;;;4982572;28;20037;-83
2022/01/03 04:33:56;;;;;;;27.88;5.35;;;9.10;99.90;;;;;;4992935;28;20132;-83
2022/01/03 04:36:23;;;;;;;21.83;4.72;;;9.10;99.90;;;;;;5009364;28;20049;-83
2022/01/03 04:38:50;;;;;;;24.52;4.80;;;9.20;99.90;;;;;;5003688;28;20052;-83
2022/01/03 04:41:16;;;;;;;31.30;4.90;;;9.10;99.90;;;;;;4997697;28;20096;-82
2022/01/03 04:43:43;;;;;;;25.15;5.15;;;9.20;99.90;;;;;;5004840;28;20056;-83
2022/01/03 04:46:10;;;;;;;27.25;4.72;;;9.20;99.90;;;;;;4999403;28;20464;-84
2022/01/03 04:48:37;;;;;;;27.08;4.85;;;9.20;99.90;;;;;;5010638;28;20472;-83
2022/01/03 04:51:04;;;;;;;28.90;6.28;;;9.20;99.90;;;;;;4996486;28;20049;-83
2022/01/03 04:53:33;;;;;;;32.15;5.88;;;9.20;99.90;;;;;;5009927;28;20041;-83
2022/01/03 04:55:59;;;;;;;24.60;5.28;;;9.20;99.90;;;;;;5001629;28;20144;-83
2022/01/03 04:58:25;;;;;;;28.70;5.80;;;9.20;99.90;;;;;;4979662;28;20045;-83
2022/01/03 05:00:51;;;;;;;28.95;5.03;;;9.10;99.90;;;;;;5010802;28;20045;-83
2022/01/03 05:03:18;;;;;;;28.20;5.53;;;9.20;99.90;;;;;;4995694;28;20054;-83
2022/01/03 05:05:44;;;;;;;27.73;5.88;;;9.20;99.90;;;;;;4992735;28;20509;-83
2022/01/03 05:08:11;;;;;;;27.17;5.78;;;9.20;99.90;;;;;;4977962;28;20049;-83
2022/01/03 05:10:37;;;;;;;24.58;5.60;;;9.20;99.90;;;;;;5010538;28;20108;-83
2022/01/03 05:13:04;;;;;;;30.30;6.32;;;9.20;99.90;;;;;;4997500;28;20076;-83
2022/01/03 05:15:31;;;;;;;28.42;5.88;;;9.20;99.90;;;;;;5009544;28;20777;-83
2022/01/03 05:17:57;;;;;;;29.52;6.45;;;9.20;99.90;;;;;;4974750;28;20108;-83
2022/01/03 05:20:23;;;;;;;35.58;6.15;;;9.10;99.90;;;;;;4970160;28;20175;-83
2022/01/03 05:22:50;;;;;;;32.85;5.95;;;9.20;99.90;;;;;;4962059;28;20045;-83
2022/01/03 05:25:17;;;;;;;30.58;6.22;;;9.20;99.90;;;;;;4992112;28;20458;-83
2022/01/03 05:27:44;;;;;;;21.85;4.97;;;9.20;99.90;;;;;;4989281;28;20049;-83
2022/01/03 05:30:12;;;;;;;28.85;5.47;;;9.20;99.90;;;;;;4977570;28;20776;-83
2022/01/03 05:32:39;;;;;;;22.55;5.32;;;9.20;99.90;;;;;;4977469;28;20136;-83
2022/01/03 05:35:06;;;;;;;32.15;5.88;;;9.20;99.90;;;;;;4999622;28;20056;-84
2022/01/03 05:37:32;;;;;;;27.58;5.70;;;9.10;99.90;;;;;;4965902;28;20139;-83
2022/01/03 05:39:58;;;;;;;29.90;5.78;;;9.10;99.90;;;;;;4979770;28;20418;-84
2022/01/03 05:42:25;;;;;;;31.98;5.65;;;9.10;99.90;;;;;;4991529;28;20037;-84
2022/01/03 05:44:51;;;;;;;29.88;5.53;;;9.10;99.90;;;;;;4989082;28;20054;-83
2022/01/03 05:47:18;;;;;;;30.58;6.03;;;9.00;99.90;;;;;;4960244;28;20050;-83
2022/01/03 05:49:45;;;;;;;29.30;5.80;;;8.90;99.90;;;;;;5003756;28;20045;-84
2022/01/03 05:52:11;;;;;;;33.92;5.35;;;9.00;99.90;;;;;;4993591;28;20049;-84
2022/01/03 05:54:37;;;;;;;23.02;5.32;;;8.90;99.90;;;;;;4995020;28;20037;-85
2022/01/03 05:57:03;;;;;;;32.00;5.90;;;8.90;99.90;;;;;;4977262;28;20085;-85
2022/01/03 05:59:31;;;;;;;23.30;5.30;;;8.90;99.90;;;;;;4974343;28;20513;-85
2022/01/03 06:01:57;;;;;;;31.45;5.18;;;8.90;99.90;;;;;;4959160;28;20052;-85
2022/01/03 06:04:35;;;;;;;31.08;4.88;;;8.90;99.90;;;;;;4976426;28;20121;-86
2022/01/03 06:07:08;;;;;;;28.05;6.03;;;8.90;99.90;;;;;;4976787;28;20049;-86
2022/01/03 06:09:39;;;;;;;29.88;5.80;;;8.90;99.90;;;;;;5008963;28;20058;-85
2022/01/03 06:12:06;;;;;;;31.02;6.00;;;8.90;99.90;;;;;;4974696;28;20045;-85
2022/01/03 06:14:37;;;;;;;36.90;6.55;;;8.90;99.90;;;;;;4974820;28;20494;-85
2022/01/03 06:17:05;;;;;;;27.85;5.70;;;8.90;99.90;;;;;;4954668;28;20394;-83
2022/01/03 06:19:36;;;;;;;30.83;5.57;;;8.90;99.90;;;;;;5003755;28;20505;-83
2022/01/03 06:22:04;;;;;;;26.20;5.75;;;8.80;99.90;;;;;;4975790;28;20156;-83
2022/01/03 06:24:31;;;;;;;31.42;5.82;;;8.80;99.90;;;;;;4990440;28;20048;-85
2022/01/03 06:26:57;;;;;;;24.70;4.93;;;8.80;99.90;;;;;;4955425;28;20053;-85
2022/01/03 06:29:23;;;;;;;34.58;5.55;;;8.70;99.90;;;;;;4975057;28;20053;-86
2022/01/03 06:31:51;;;;;;;28.35;5.13;;;8.70;99.90;;;;;;5002474;28;20038;-85
2022/01/03 06:34:18;;;;;;;34.17;5.40;;;8.70;99.90;;;;;;5007939;28;20052;-85
2022/01/03 06:36:46;;;;;;;35.35;6.00;;;8.70;99.90;;;;;;4991365;28;20041;-86
2022/01/03 06:39:12;;;;;;;30.98;5.40;;;8.70;99.90;;;;;;4977470;28;20045;-85
2022/01/03 06:41:40;;;;;;;23.13;5.35;;;8.60;99.90;;;;;;5004106;28;20045;-86
2022/01/03 06:44:07;;;;;;;23.77;5.60;;;8.60;99.90;;;;;;4989034;28;20045;-84
2022/01/03 06:46:33;;;;;;;34.53;5.68;;;8.60;99.90;;;;;;4976279;28;20406;-84
2022/01/03 06:49:02;;;;;;;29.42;6.70;;;8.60;99.90;;;;;;4974025;28;20053;-84
2022/01/03 06:51:34;;;;;;;25.45;6.00;;;8.60;99.90;;;;;;4956392;28;20073;-84
2022/01/03 06:54:05;;;;;;;34.00;6.80;;;8.60;99.90;;;;;;4960019;28;20045;-84
2022/01/03 06:56:31;;;;;;;34.85;6.63;;;8.60;99.90;;;;;;4963528;28;20123;-83
2022/01/03 06:58:58;;;;;;;42.28;6.30;;;8.60;99.90;;;;;;4991197;28;20506;-83
2022/01/03 07:01:24;;;;;;;27.00;5.97;;;8.60;99.90;;;;;;4977109;28;20045;-83
2022/01/03 07:03:50;;;;;;;30.02;6.97;;;8.60;99.90;;;;;;4972698;28;21361;-83
2022/01/03 07:06:17;;;;;;;32.70;6.15;;;8.60;99.90;;;;;;5009118;28;20050;-83
2022/01/03 07:08:43;;;;;;;34.05;6.53;;;8.70;99.90;;;;;;5009292;28;20045;-84
2022/01/03 07:11:09;;;;;;;30.60;6.13;;;8.60;99.90;;;;;;4974858;28;20045;-84
2022/01/03 07:13:43;;;;;;;30.58;6.75;;;8.60;99.90;;;;;;4989363;28;20447;-85
2022/01/03 07:18:59;;;;;;;33.47;5.43;;;8.60;99.90;;;;;;5012057;28;20056;-84
2022/01/03 07:21:28;;;;;;;32.53;7.25;;;8.60;99.90;;;;;;4971016;28;20053;-83
2022/01/03 07:23:55;;;;;;;34.33;6.50;;;8.60;99.90;;;;;;5006733;28;20410;-83
2022/01/03 07:26:22;;;;;;;32.90;5.72;;;8.60;99.90;;;;;;4976634;28;20076;-83
2022/01/03 07:28:48;;;;;;;34.25;6.80;;;8.60;99.90;;;;;;4991981;28;20042;-81
2022/01/03 07:31:14;;;;;;;32.92;6.22;;;8.70;99.90;;;;;;4976216;28;20045;-83
2022/01/03 07:33:41;;;;;;;36.40;7.82;;;8.70;99.90;;;;;;5004882;28;20038;-83
2022/01/03 07:36:08;;;;;;;36.13;6.75;;;8.70;99.90;;;;;;4957652;28;20892;-84
2022/01/03 07:38:38;;;;;;;36.28;7.50;;;8.70;99.90;;;;;;4962443;28;20042;-84
2022/01/03 07:41:05;;;;;;;33.20;7.07;;;8.80;99.90;;;;;;4976305;28;20127;-83
2022/01/03 07:43:31;;;;;;;35.75;6.25;;;8.90;99.90;;;;;;4989021;28;20065;-84
2022/01/03 07:45:58;;;;;;;33.50;6.57;;;9.00;99.90;;;;;;4956409;28;20045;-83
2022/01/03 07:48:24;;;;;;;36.88;7.65;;;8.90;99.90;;;;;;5009011;28;20052;-84
2022/01/03 07:50:50;;;;;;;25.40;5.28;;;9.00;99.90;;;;;;4997052;28;20053;-84
2022/01/03 07:53:16;;;;;;;37.55;8.15;;;9.00;99.90;;;;;;5008412;28;20060;-84
2022/01/03 07:55:42;;;;;;;42.08;7.50;;;9.00;99.90;;;;;;5008049;28;20132;-83
2022/01/03 07:58:09;;;;;;;31.77;7.43;;;9.00;99.90;;;;;;4972647;28;20049;-83
2022/01/03 08:00:35;;;;;;;39.42;6.32;;;8.90;99.90;;;;;;4988160;28;20034;-84
2022/01/03 08:03:01;;;;;;;33.42;6.43;;;8.90;99.90;;;;;;4967268;28;20053;-84
2022/01/03 08:05:27;;;;;;;31.45;8.38;;;9.00;99.90;;;;;;4985634;28;20041;-83
2022/01/03 08:07:53;;;;;;;30.05;7.22;;;9.10;99.90;;;;;;4971587;28;20049;-84
2022/01/03 08:10:20;;;;;;;33.55;7.28;;;9.10;99.90;;;;;;4986307;28;20060;-83
2022/01/03 08:12:46;;;;;;;40.05;7.85;;;9.20;99.90;;;;;;4976447;28;20103;-82
2022/01/03 08:15:13;;;;;;;38.65;6.35;;;9.30;99.90;;;;;;4960795;28;20044;-83
2022/01/03 08:17:39;;;;;;;30.00;6.65;;;9.40;99.90;;;;;;4985536;28;20041;-83
2022/01/03 08:20:06;;;;;;;28.60;6.22;;;9.40;99.90;;;;;;4975225;28;20057;-85
2022/01/03 08:22:32;;;;;;;33.13;6.10;;;9.40;99.90;;;;;;4993566;28;20080;-84
2022/01/03 08:24:58;;;;;;;51.60;16.38;;;9.50;99.90;;;;;;4973349;28;20045;-81
2022/01/03 08:27:24;;;;;;;48.63;20.80;;;9.50;99.90;;;;;;4979139;28;20347;-82
2022/01/03 08:29:50;;;;;;;41.20;15.07;;;9.50;99.90;;;;;;4993225;28;20041;-81
2022/01/03 08:32:17;;;;;;;32.53;6.55;;;9.60;99.90;;;;;;5004608;28;20103;-82
2022/01/03 08:34:43;;;;;;;33.75;6.60;;;9.60;99.90;;;;;;5003913;28;20068;-82
2022/01/03 08:37:09;;;;;;;28.95;6.70;;;9.70;99.90;;;;;;4976697;28;20069;-82
2022/01/03 08:39:35;;;;;;;29.95;5.10;;;9.70;99.90;;;;;;4976986;28;20551;-81
2022/01/03 08:42:01;;;;;;;30.02;5.40;;;9.70;99.90;;;;;;4973863;28;20046;-82
2022/01/03 08:44:27;;;;;;;26.27;6.32;;;9.80;99.90;;;;;;4988506;28;20125;-81
2022/01/03 08:46:53;;;;;;;37.30;6.85;;;9.70;99.90;;;;;;4974698;28;20085;-82
2022/01/03 08:49:19;;;;;;;31.98;6.22;;;9.80;99.90;;;;;;5006885;28;20044;-82
2022/01/03 08:51:46;;;;;;;30.95;7.65;;;9.80;99.90;;;;;;4987793;28;20053;-82
2022/01/03 08:54:12;;;;;;;26.88;5.55;;;9.80;99.90;;;;;;4975274;28;20099;-82
2022/01/03 08:56:41;;;;;;;26.63;5.60;;;9.80;99.90;;;;;;4993625;28;20052;-85
2022/01/03 08:59:07;;;;;;;34.78;6.55;;;9.80;99.90;;;;;;5001689;28;20535;-84
2022/01/03 09:01:34;;;;;;;31.85;6.53;;;9.90;99.90;;;;;;4974633;28;20041;-83
2022/01/03 09:04:00;;;;;;;28.67;7.07;;;9.80;99.90;;;;;;4956956;28;20465;-82
2022/01/03 09:06:27;;;;;;;34.03;5.95;;;9.80;99.90;;;;;;4991246;28;20045;-84
2022/01/03 09:08:54;;;;;;;29.50;6.57;;;9.90;99.90;;;;;;4967265;28;20057;-81
2022/01/03 09:11:20;;;;;;;31.42;6.53;;;9.90;99.90;;;;;;4993107;28;20052;-82
2022/01/03 09:13:46;;;;;;;32.63;6.55;;;9.90;99.90;;;;;;4993416;28;20068;-83
2022/01/03 09:16:12;;;;;;;28.52;5.90;;;9.90;99.90;;;;;;4992135;28;20132;-83
2022/01/03 09:18:40;;;;;;;32.53;6.88;;;9.80;99.90;;;;;;4975008;28;20037;-81
2022/01/03 09:21:07;;;;;;;27.90;5.70;;;9.90;99.90;;;;;;4991594;28;20132;-80
2022/01/03 09:23:38;;;;;;;29.35;5.32;;;9.90;99.90;;;;;;4993152;28;20407;-82
2022/01/03 09:28:49;;;;;;;27.00;5.47;;;9.90;99.90;;;;;;4994313;28;20038;-83
2022/01/03 09:31:30;;;;;;;25.70;4.95;;;9.90;99.90;;;;;;5007700;28;20080;-82
2022/01/03 09:33:59;;;;;;;31.45;5.78;;;9.90;99.90;;;;;;4990673;28;20057;-84
2022/01/03 09:36:28;;;;;;;24.50;5.25;;;9.90;99.90;;;;;;4978178;28;20432;-83
2022/01/03 09:38:54;;;;;;;32.40;5.57;;;10.00;99.90;;;;;;4992378;28;20053;-83
2022/01/03 09:41:26;;;;;;;28.10;5.72;;;10.00;99.90;;;;;;4992192;28;20115;-83
2022/01/03 09:44:02;;;;;;;30.42;5.97;;;10.00;99.90;;;;;;4992107;28;20045;-83
2022/01/03 09:46:37;;;;;;;26.45;5.68;;;10.00;99.90;;;;;;4986516;28;20509;-83
2022/01/03 09:49:07;;;;;;;23.15;4.85;;;10.10;99.90;;;;;;5006478;28;20045;-83
2022/01/03 09:51:34;;;;;;;26.33;4.70;;;10.00;99.90;;;;;;5002004;28;20509;-82
2022/01/03 09:54:04;;;;;;;23.85;5.10;;;10.10;99.90;;;;;;5006765;28;20050;-82
2022/01/03 09:56:32;;;;;;;32.33;5.18;;;10.10;99.90;;;;;;4992480;28;20092;-82
2022/01/03 09:59:00;;;;;;;24.48;5.13;;;10.10;99.90;;;;;;4990561;28;20072;-83
2022/01/03 10:01:29;;;;;;;25.40;6.07;;;10.20;99.90;;;;;;4992055;28;20045;-80
2022/01/03 10:03:55;;;;;;;35.22;5.82;;;10.20;99.90;;;;;;5004833;28;20049;-82
2022/01/03 10:06:23;;;;;;;24.20;5.45;;;10.20;99.90;;;;;;4971303;28;20750;-81
2022/01/03 10:08:50;;;;;;;27.90;6.55;;;10.20;99.90;;;;;;4972729;28;20033;-83
2022/01/03 10:11:16;;;;;;;25.63;5.97;;;10.20;99.90;;;;;;4987967;28;20059;-84
2022/01/03 10:13:42;;;;;;;26.08;5.38;;;10.20;99.90;;;;;;4997352;28;20163;-84
2022/01/03 10:16:09;;;;;;;30.00;5.40;;;10.30;99.90;;;;;;4990849;28;20511;-81
2022/01/03 10:18:35;;;;;;;28.80;5.32;;;10.30;99.90;;;;;;5002926;28;20037;-84
2022/01/03 10:21:02;;;;;;;26.73;5.22;;;10.30;99.90;;;;;;4962275;28;20131;-82
2022/01/03 10:23:29;;;;;;;27.83;6.90;;;10.30;99.90;;;;;;4989475;28;20045;-80
2022/01/03 10:26:15;;;;;;;27.90;5.40;;;10.30;99.90;;;;;;4973918;28;20141;-81
2022/01/03 10:28:41;;;;;;;24.25;5.40;;;10.30;99.90;;;;;;4995571;28;20025;-81
2022/01/03 10:31:19;;;;;;;20.63;4.72;;;10.30;99.90;;;;;;5008526;28;20045;-81
2022/01/03 10:33:46;;;;;;;23.30;5.75;;;10.30;99.90;;;;;;4992742;28;20445;-83
2022/01/03 10:36:32;;;;;;;30.00;5.85;;;10.30;99.90;;;;;;4977509;28;20125;-81
2022/01/03 10:39:10;;;;;;;23.13;5.97;;;10.30;99.90;;;;;;4988545;28;20150;-79
2022/01/03 10:41:36;;;;;;;23.05;5.43;;;10.30;99.90;;;;;;4998801;28;20053;-81
2022/01/03 10:44:02;;;;;;;27.85;5.30;;;10.30;99.90;;;;;;4995955;28;20045;-82
2022/01/03 10:46:34;;;;;;;29.80;5.45;;;10.30;99.90;;;;;;5011104;28;20064;-82
2022/01/03 10:49:15;;;;;;;28.23;5.65;;;10.30;99.90;;;;;;4984239;28;20041;-80
2022/01/03 10:51:42;;;;;;;32.35;5.65;;;10.20;99.90;;;;;;4995561;28;20037;-82
2022/01/03 10:54:12;;;;;;;28.48;7.20;;;10.20;99.90;;;;;;5008811;28;20485;-82
2022/01/03 10:56:41;;;;;;;26.73;6.05;;;10.20;99.90;;;;;;4983366;28;20098;-82
2022/01/03 10:59:18;;;;;;;30.63;6.78;;;10.30;99.90;;;;;;4994886;28;20045;-82
2022/01/03 11:01:47;;;;;;;34.60;6.57;;;10.30;99.90;;;;;;4994408;28;20049;-79
2022/01/03 11:13:19;;;;;;;24.55;5.10;;;10.40;99.90;;;;;;5004883;28;20041;-81
2022/01/03 11:15:59;;;;;;;28.27;7.32;;;10.60;99.90;;;;;;4992755;28;20079;-80
2022/01/03 11:18:29;;;;;;;30.88;5.97;;;10.80;99.90;;;;;;4994167;28;20041;-80
2022/01/03 11:21:14;;;;;;;20.70;5.10;;;11.00;99.90;;;;;;5002025;28;20111;-80
2022/01/03 11:23:48;;;;;;;29.27;5.82;;;11.00;99.90;;;;;;4993500;28;20040;-80
2022/01/03 11:26:15;;;;;;;24.55;5.60;;;11.10;99.90;;;;;;4990781;28;20745;-81
2022/01/03 11:28:43;;;;;;;27.00;5.70;;;11.10;99.90;;;;;;5007831;28;20052;-79
2022/01/03 11:31:11;;;;;;;27.73;6.50;;;11.00;99.90;;;;;;4985583;28;20040;-80
2022/01/03 11:33:39;;;;;;;29.15;6.15;;;10.90;99.90;;;;;;5007379;28;20045;-81
2022/01/03 11:36:06;;;;;;;28.98;5.28;;;10.90;99.90;;;;;;4988993;28;20452;-81
2022/01/03 11:38:39;;;;;;;24.30;5.30;;;10.80;99.90;;;;;;4993683;28;20042;-82
2022/01/03 11:41:08;;;;;;;26.75;5.03;;;10.80;99.90;;;;;;4991039;28;20128;-81
2022/01/03 11:43:36;;;;;;;27.90;5.00;;;10.80;99.90;;;;;;4986577;28;20073;-80
2022/01/03 11:46:03;;;;;;;23.15;5.63;;;10.90;99.90;;;;;;5023198;28;20052;-77
2022/01/03 11:48:30;;;;;;;20.52;5.43;;;11.00;99.90;;;;;;4993837;28;20760;-80
2022/01/03 11:51:03;;;;;;;29.35;5.70;;;11.10;99.90;;;;;;4995610;28;20048;-80
2022/01/03 11:53:31;;;;;;;37.22;13.40;;;11.20;99.90;;;;;;4990969;28;20469;-77
2022/01/03 11:56:13;;;;;;;28.33;10.63;;;11.30;99.90;;;;;;4971003;28;20045;-78
2022/01/03 11:58:58;;;;;;;23.67;6.73;;;11.40;99.90;;;;;;5008255;28;20038;-81
2022/01/03 12:04:34;;;;;;;29.88;6.22;;;11.40;99.90;;;;;;5010606;28;20046;-79
2022/01/03 12:07:11;;;;;;;29.63;6.47;;;11.30;99.90;;;;;;5007286;28;20057;-79
2022/01/03 12:09:43;;;;;;;29.75;5.53;;;11.20;99.90;;;;;;4990764;28;20046;-79
2022/01/03 12:12:27;;;;;;;26.05;5.05;;;11.40;99.90;;;;;;4970076;28;20089;-80
2022/01/03 12:14:57;;;;;;;32.97;6.63;;;11.40;99.90;;;;;;4976479;28;20105;-80
2022/01/03 12:17:45;;;;;;;32.08;5.25;;;11.50;99.90;;;;;;4993076;28;20041;-78
2022/01/03 12:20:12;;;;;;;27.52;5.85;;;11.40;99.90;;;;;;5026232;28;20129;-78
2022/01/03 12:22:51;;;;;;;24.63;6.10;;;11.50;99.90;;;;;;4987155;28;20128;-77
2022/01/03 12:25:25;;;;;;;27.02;7.05;;;11.70;99.90;;;;;;4992541;28;20041;-78
2022/01/03 12:27:56;;;;;;;21.35;5.35;;;11.60;99.90;;;;;;4969278;28;20049;-78
2022/01/03 12:30:27;;;;;;;35.40;6.60;;;11.50;99.90;;;;;;4975449;28;20508;-81
2022/01/03 12:33:06;;;;;;;26.58;5.63;;;11.30;99.90;;;;;;5004970;28;20046;-83
2022/01/03 12:35:56;;;;;;;28.90;5.95;;;11.40;99.90;;;;;;4999529;28;20042;-79
2022/01/03 12:38:28;;;;;;;26.65;5.78;;;11.50;99.90;;;;;;4988573;28;20095;-80
2022/01/03 12:40:57;;;;;;;27.17;6.45;;;11.40;99.90;;;;;;4991611;28;20565;-80
2022/01/03 12:43:46;;;;;;;28.60;5.97;;;11.60;99.90;;;;;;4974897;28;20034;-81
2022/01/03 12:46:18;;;;;;;26.35;5.93;;;11.60;99.90;;;;;;5024190;28;20727;-81
2022/01/03 12:48:44;;;;;;;21.45;5.30;;;11.70;99.90;;;;;;4992298;28;20041;-80
2022/01/03 12:51:14;;;;;;;29.60;5.57;;;11.60;99.90;;;;;;4975706;28;20060;-80
2022/01/03 12:53:43;;;;;;;28.45;5.35;;;11.60;99.90;;;;;;5001881;28;20053;-80
2022/01/03 12:56:13;;;;;;;27.02;5.35;;;11.50;99.90;;;;;;4987154;28;21650;-80
2022/01/03 12:58:40;;;;;;;27.90;4.85;;;11.40;99.90;;;;;;5022245;28;20056;-81
2022/01/03 13:01:15;;;;;;;26.95;6.10;;;11.50;99.90;;;;;;4969751;28;20045;-80
2022/01/03 13:03:50;;;;;;;28.55;6.25;;;11.40;99.90;;;;;;5002913;28;20037;-80
2022/01/03 13:06:22;;;;;;;24.42;5.65;;;11.60;99.90;;;;;;4986521;28;20042;-80
2022/01/03 13:08:48;;;;;;;23.45;5.13;;;11.80;99.90;;;;;;5000555;28;20920;-81
2022/01/03 13:11:17;;;;;;;31.58;6.50;;;11.90;99.90;;;;;;5018852;28;20058;-81
2022/01/03 13:13:45;;;;;;;24.55;6.07;;;11.90;99.90;;;;;;4988382;28;20136;-83
2022/01/03 13:16:19;;;;;;;24.05;5.05;;;11.80;99.90;;;;;;5008750;28;20045;-81